createdAt,value
2019-04-29T00:01:11.995Z,10.76
2019-04-29T00:03:42.561Z,10.78
2019-04-29T00:06:13.116Z,10.83
2019-04-29T00:08:43.891Z,10.86
2019-04-29T00:11:14.545Z,10.94
2019-04-29T00:13:45.552Z,10.87
2019-04-29T00:16:30.080Z,10.84
2019-04-29T00:19:02.332Z,10.80
2019-04-29T00:21:32.945Z,10.73
2019-04-29T00:24:04.377Z,10.81
2019-04-29T00:26:35.374Z,10.75
2019-04-29T00:29:05.995Z,10.78
2019-04-29T00:31:36.592Z,10.76
2019-04-29T00:34:07.253Z,10.85
2019-04-29T00:36:45.308Z,10.86
2019-04-29T00:39:23.361Z,10.88
2019-04-29T00:42:07.964Z,10.88
2019-04-29T00:44:38.582Z,10.89
2019-04-29T00:47:09.200Z,10.88
2019-04-29T00:49:39.808Z,10.99
2019-04-29T00:52:10.565Z,10.92
2019-04-29T00:54:47.185Z,10.91
2019-04-29T00:57:18.156Z,10.90
2019-04-29T00:59:50.702Z,10.94
2019-04-29T01:02:21.308Z,11.02
2019-04-29T01:04:51.917Z,10.99
2019-04-29T01:07:22.673Z,10.96
2019-04-29T01:09:53.279Z,10.91
2019-04-29T01:12:23.935Z,10.91
2019-04-29T01:14:54.578Z,10.94
2019-04-29T01:17:25.845Z,10.93
2019-04-29T01:19:56.397Z,10.95
2019-04-29T01:22:27.514Z,10.91
2019-04-29T01:24:58.072Z,10.96
2019-04-29T01:27:30.309Z,10.94
2019-04-29T01:30:02.354Z,10.86
2019-04-29T01:32:33.064Z,10.87
2019-04-29T01:35:05.435Z,10.97
2019-04-29T01:37:37.651Z,11.14
2019-04-29T01:40:10.387Z,11.00
2019-04-29T01:42:42.642Z,11.03
2019-04-29T01:45:14.399Z,11.16
2019-04-29T01:47:45.372Z,11.12
2019-04-29T01:50:15.927Z,11.07
2019-04-29T01:52:46.532Z,11.07
2019-04-29T01:55:18.202Z,11.16
2019-04-29T01:57:48.844Z,11.12
2019-04-29T02:00:19.747Z,11.05
2019-04-29T02:02:50.348Z,11.04
2019-04-29T02:05:20.956Z,11.05
2019-04-29T02:07:51.553Z,11.01
2019-04-29T02:10:23.898Z,11.05
2019-04-29T02:12:54.657Z,11.10
2019-04-29T02:15:26.008Z,11.19
2019-04-29T02:17:56.570Z,11.23
2019-04-29T02:20:27.215Z,11.46
2019-04-29T02:23:02.458Z,11.33
2019-04-29T02:25:50.164Z,11.25
2019-04-29T02:28:20.804Z,11.16
2019-04-29T02:30:52.147Z,11.27
2019-04-29T02:33:22.763Z,11.24
2019-04-29T02:35:54.337Z,11.39
2019-04-29T02:38:41.714Z,11.31
2019-04-29T02:41:17.104Z,11.28
2019-04-29T02:43:49.944Z,11.50
2019-04-29T02:46:20.488Z,11.36
2019-04-29T02:48:51.244Z,11.33
2019-04-29T02:51:39.806Z,11.42
2019-04-29T02:54:10.409Z,11.46
2019-04-29T02:56:42.630Z,11.54
2019-04-29T02:59:15.097Z,11.45
2019-04-29T03:02:02.778Z,11.32
2019-04-29T03:04:37.991Z,11.31
2019-04-29T03:07:08.605Z,11.36
2019-04-29T03:09:45.576Z,11.23
2019-04-29T03:12:16.237Z,11.28
2019-04-29T03:14:46.840Z,11.30
2019-04-29T03:17:18.951Z,11.24
2019-04-29T03:20:09.747Z,11.18
2019-04-29T03:22:42.348Z,11.30
2019-04-29T03:25:13.330Z,11.18
2019-04-29T03:27:44.962Z,11.32
2019-04-29T03:30:15.713Z,11.33
2019-04-29T03:32:46.369Z,11.41
2019-04-29T03:35:16.879Z,11.45
2019-04-29T03:37:47.484Z,11.22
2019-04-29T03:40:18.050Z,11.26
2019-04-29T03:42:48.672Z,11.39
2019-04-29T03:45:19.280Z,11.43
2019-04-29T03:47:49.881Z,11.41
2019-04-29T03:50:20.613Z,11.44
2019-04-29T03:52:51.167Z,11.64
2019-04-29T03:55:38.168Z,11.40
2019-04-29T03:57:54.046Z,11.36
2019-04-29T04:00:24.665Z,11.41
2019-04-29T04:03:06.144Z,11.41
2019-04-29T04:05:39.307Z,11.41
2019-04-29T04:08:20.889Z,11.40
2019-04-29T04:10:51.559Z,11.51
2019-04-29T04:13:22.129Z,11.47
2019-04-29T04:15:52.708Z,11.62
2019-04-29T04:18:27.777Z,11.50
2019-04-29T04:20:58.502Z,11.59
2019-04-29T04:23:29.112Z,11.51
2019-04-29T04:25:59.825Z,11.31
2019-04-29T04:28:30.453Z,11.26
2019-04-29T04:31:01.165Z,11.42
2019-04-29T04:33:31.978Z,11.33
2019-04-29T04:36:02.613Z,11.24
2019-04-29T04:38:33.212Z,11.37
2019-04-29T04:41:05.743Z,11.41
2019-04-29T04:43:36.513Z,11.33
2019-04-29T04:46:07.145Z,11.37
2019-04-29T04:48:38.348Z,11.44
2019-04-29T04:51:09.597Z,11.33
2019-04-29T04:53:40.374Z,11.27
2019-04-29T04:56:11.081Z,11.33
2019-04-29T04:58:42.046Z,11.43
2019-04-29T05:01:13.326Z,11.39
2019-04-29T05:03:44.464Z,11.46
2019-04-29T05:06:15.134Z,11.48
2019-04-29T05:08:46.758Z,11.67
2019-04-29T05:11:17.390Z,11.86
2019-04-29T05:13:48.242Z,11.49
2019-04-29T05:16:18.913Z,11.36
2019-04-29T05:18:49.589Z,11.44
2019-04-29T05:21:20.135Z,11.35
2019-04-29T05:23:51.872Z,11.46
2019-04-29T05:26:22.475Z,11.63
2019-04-29T05:28:53.589Z,11.70
2019-04-29T05:31:24.148Z,11.65
2019-04-29T05:33:54.926Z,11.64
2019-04-29T05:36:27.134Z,11.75
2019-04-29T05:39:14.374Z,11.69
2019-04-29T05:41:45.040Z,11.82
2019-04-29T05:44:29.205Z,11.98
2019-04-29T05:47:07.675Z,12.03
2019-04-29T05:49:42.897Z,12.24
2019-04-29T05:52:15.079Z,12.06
2019-04-29T05:54:46.013Z,11.87
2019-04-29T05:57:20.354Z,11.93
2019-04-29T05:59:49.526Z,11.96
2019-04-29T06:02:24.073Z,12.14
2019-04-29T06:04:53.948Z,12.08
2019-04-29T06:07:26.962Z,12.20
2019-04-29T06:09:57.657Z,12.05
2019-04-29T06:12:29.229Z,12.28
2019-04-29T06:14:59.847Z,12.28
2019-04-29T06:17:30.635Z,12.18
2019-04-29T06:20:01.240Z,12.00
2019-04-29T06:22:31.919Z,12.20
2019-04-29T06:25:02.584Z,12.15
2019-04-29T06:27:33.418Z,12.01
2019-04-29T06:30:08.832Z,11.95
2019-04-29T06:32:39.478Z,11.86
2019-04-29T06:35:13.834Z,11.74
2019-04-29T06:37:42.783Z,11.89
2019-04-29T06:40:13.536Z,12.13
2019-04-29T06:42:44.198Z,11.99
2019-04-29T06:45:15.287Z,12.06
2019-04-29T06:47:45.920Z,11.92
2019-04-29T06:50:16.828Z,11.91
2019-04-29T06:52:47.385Z,11.98
2019-04-29T06:55:18.003Z,11.99
2019-04-29T06:57:48.634Z,12.25
2019-04-29T07:00:22.229Z,12.18
2019-04-29T07:02:51.852Z,12.16
2019-04-29T07:05:23.631Z,12.22
2019-04-29T07:07:54.250Z,12.32
2019-04-29T07:10:27.034Z,12.39
2019-04-29T07:12:57.147Z,12.54
2019-04-29T07:15:28.730Z,12.48
2019-04-29T07:17:59.389Z,12.69
2019-04-29T07:20:32.544Z,12.56
2019-04-29T07:23:02.573Z,12.72
2019-04-29T07:25:34.223Z,12.46
2019-04-29T07:28:04.904Z,12.57
2019-04-29T07:30:39.207Z,12.71
2019-04-29T07:33:07.909Z,12.46
2019-04-29T07:35:42.859Z,12.51
2019-04-29T07:38:12.302Z,12.70
2019-04-29T07:40:43.706Z,12.95
2019-04-29T07:43:15.181Z,12.66
2019-04-29T07:45:53.403Z,12.48
2019-04-29T07:48:24.905Z,12.62
2019-04-29T07:50:59.462Z,12.70
2019-04-29T07:53:36.745Z,12.94
2019-04-29T07:56:01.714Z,12.75
2019-04-29T07:58:32.386Z,12.61
2019-04-29T08:01:02.993Z,12.76
2019-04-29T08:03:33.558Z,12.77
2019-04-29T08:06:04.294Z,12.73
2019-04-29T08:08:35.280Z,12.76
2019-04-29T08:11:05.849Z,12.68
2019-04-29T08:13:37.856Z,12.85
2019-04-29T08:16:08.451Z,12.91
2019-04-29T08:18:39.329Z,13.00
2019-04-29T08:21:10.177Z,13.07
2019-04-29T08:23:42.443Z,13.12
2019-04-29T08:26:13.117Z,13.18
2019-04-29T08:28:44.352Z,13.31
2019-04-29T08:31:16.577Z,13.28
2019-04-29T08:33:48.535Z,13.18
2019-04-29T08:36:20.658Z,13.24
2019-04-29T08:38:51.237Z,13.42
2019-04-29T08:41:28.498Z,13.47
2019-04-29T08:44:16.274Z,13.13
2019-04-29T08:46:58.478Z,13.29
2019-04-29T08:49:29.062Z,13.33
2019-04-29T08:52:01.639Z,13.43
2019-04-29T08:54:37.005Z,13.58
2019-04-29T08:57:06.109Z,13.79
2019-04-29T08:59:36.683Z,13.90
2019-04-29T09:02:10.182Z,14.03
2019-04-29T09:04:52.806Z,14.40
2019-04-29T09:07:13.209Z,14.53
2019-04-29T09:09:44.230Z,14.91
2019-04-29T09:12:14.814Z,14.91
2019-04-29T09:14:45.391Z,14.78
2019-04-29T09:17:20.622Z,14.95
2019-04-29T09:19:48.238Z,15.26
2019-04-29T09:22:20.428Z,15.55
2019-04-29T09:25:09.347Z,15.59
2019-04-29T09:27:45.027Z,16.19
2019-04-29T09:30:16.247Z,16.75
2019-04-29T09:32:46.826Z,16.65
2019-04-29T09:35:17.623Z,17.62
2019-04-29T09:37:48.282Z,17.44
2019-04-29T09:40:23.802Z,17.96
2019-04-29T09:42:57.096Z,18.22
2019-04-29T09:45:45.703Z,18.48
2019-04-29T09:48:16.293Z,18.50
2019-04-29T09:50:46.887Z,18.04
2019-04-29T09:53:17.493Z,19.49
2019-04-29T09:55:48.074Z,19.49
2019-04-29T09:58:18.705Z,19.15
2019-04-29T10:00:50.947Z,19.42
2019-04-29T10:03:26.064Z,19.54
2019-04-29T10:05:59.236Z,19.46
2019-04-29T10:08:30.092Z,19.52
2019-04-29T10:11:00.678Z,19.73
2019-04-29T10:13:33.297Z,19.46
2019-04-29T10:16:20.789Z,19.64
2019-04-29T10:18:53.043Z,19.63
2019-04-29T10:21:24.471Z,19.31
2019-04-29T10:23:55.156Z,19.31
2019-04-29T10:26:25.782Z,19.36
2019-04-29T10:28:58.006Z,19.54
2019-04-29T10:31:28.978Z,19.68
2019-04-29T10:33:59.546Z,19.63
2019-04-29T10:36:33.122Z,19.70
2019-04-29T10:39:06.855Z,19.47
2019-04-29T10:41:40.316Z,19.34
2019-04-29T10:44:15.904Z,19.46
2019-04-29T10:46:50.832Z,19.50
2019-04-29T10:49:23.049Z,19.73
2019-04-29T10:51:53.727Z,19.47
2019-04-29T10:54:28.035Z,19.59
2019-04-29T10:56:59.109Z,20.05
2019-04-29T10:59:36.039Z,19.48
2019-04-29T11:02:23.144Z,19.26
2019-04-29T11:04:56.351Z,19.68
2019-04-29T11:07:33.081Z,19.81
2019-04-29T11:10:09.284Z,19.63
2019-04-29T11:12:42.198Z,19.65
2019-04-29T11:15:13.948Z,19.98
2019-04-29T11:17:46.442Z,19.96
2019-04-29T11:20:21.074Z,20.01
2019-04-29T11:23:00.551Z,20.08
2019-04-29T11:25:40.468Z,20.01
2019-04-29T11:28:12.212Z,20.15
2019-04-29T11:30:43.377Z,20.08
2019-04-29T11:33:18.639Z,20.05
2019-04-29T11:35:50.884Z,20.16
2019-04-29T11:38:21.540Z,20.00
2019-04-29T11:40:52.470Z,20.02
2019-04-29T11:43:23.955Z,19.93
2019-04-29T11:45:55.411Z,20.22
2019-04-29T11:48:25.984Z,20.51
2019-04-29T11:50:58.203Z,20.51
2019-04-29T11:53:28.822Z,20.44
2019-04-29T11:55:59.415Z,20.38
2019-04-29T11:58:40.546Z,20.40
2019-04-29T12:01:38.495Z,20.45
2019-04-29T12:04:15.522Z,20.41
2019-04-29T12:06:46.194Z,20.68
2019-04-29T12:09:16.887Z,20.70
2019-04-29T12:11:47.706Z,20.78
2019-04-29T12:14:28.799Z,20.98
2019-04-29T12:17:17.716Z,21.12
2019-04-29T12:20:06.415Z,21.03
2019-04-29T12:22:47.640Z,21.31
2019-04-29T12:25:09.776Z,21.16
2019-04-29T12:27:40.386Z,20.81
2019-04-29T12:30:12.986Z,20.80
2019-04-29T12:33:01.330Z,20.64
2019-04-29T12:35:51.228Z,20.61
2019-04-29T12:38:38.816Z,20.43
2019-04-29T12:41:00.084Z,20.41
2019-04-29T12:43:41.663Z,20.41
2019-04-29T12:46:13.891Z,20.74
2019-04-29T12:48:44.467Z,20.72
2019-04-29T12:51:17.048Z,20.73
2019-04-29T12:53:47.296Z,21.07
2019-04-29T12:56:19.536Z,21.28
2019-04-29T12:58:50.664Z,21.19
2019-04-29T13:01:50.226Z,21.30
2019-04-29T13:04:21.643Z,21.35
2019-04-29T13:07:03.106Z,21.35
2019-04-29T13:12:22.644Z,21.45
2019-04-29T13:15:03.110Z,21.67
2019-04-29T13:17:47.176Z,21.93
2019-04-29T13:20:17.770Z,21.75
2019-04-29T13:22:48.347Z,21.53
2019-04-29T13:25:19.746Z,21.48
2019-04-29T13:27:51.419Z,21.44
2019-04-29T13:30:22.233Z,21.39
2019-04-29T13:32:52.962Z,21.30
2019-04-29T13:35:23.739Z,21.30
2019-04-29T13:37:55.916Z,21.29
2019-04-29T13:40:26.544Z,21.13
2019-04-29T13:42:57.143Z,20.98
2019-04-29T13:45:41.663Z,21.00
2019-04-29T13:48:16.599Z,20.98
2019-04-29T13:50:48.832Z,21.07
2019-04-29T13:53:19.560Z,21.18
2019-04-29T13:56:10.005Z,21.13
2019-04-29T13:58:27.104Z,21.22
2019-04-29T14:01:22.092Z,21.24
2019-04-29T14:03:49.896Z,21.42
2019-04-29T14:06:20.491Z,21.68
2019-04-29T14:08:54.030Z,21.86
2019-04-29T14:11:25.969Z,22.06
2019-04-29T14:13:55.707Z,22.02
2019-04-29T14:16:26.291Z,21.95
2019-04-29T14:18:56.918Z,22.07
2019-04-29T14:21:30.130Z,21.75
2019-04-29T14:24:00.268Z,21.84
2019-04-29T14:26:32.286Z,21.76
2019-04-29T14:29:03.939Z,21.95
2019-04-29T14:31:35.650Z,22.10
2019-04-29T14:34:10.839Z,21.93
2019-04-29T14:36:41.612Z,22.08
2019-04-29T14:39:13.036Z,22.07
2019-04-29T14:41:46.455Z,21.96
2019-04-29T14:44:31.471Z,21.76
2019-04-29T14:47:17.621Z,21.53
2019-04-29T14:49:55.194Z,21.60
2019-04-29T14:52:25.835Z,21.53
2019-04-29T14:54:56.560Z,21.64
2019-04-29T14:57:27.997Z,21.67
2019-04-29T14:59:58.901Z,21.72
2019-04-29T15:02:29.942Z,21.79
2019-04-29T15:05:00.806Z,21.79
2019-04-29T15:07:33.213Z,21.77
2019-04-29T15:10:08.774Z,21.72
2019-04-29T15:12:51.705Z,21.72
2019-04-29T15:15:34.126Z,21.67
2019-04-29T15:18:15.889Z,21.76
2019-04-29T15:20:42.150Z,21.66
2019-04-29T15:23:12.740Z,21.57
2019-04-29T15:25:43.447Z,21.47
2019-04-29T15:28:14.212Z,21.46
2019-04-29T15:30:45.333Z,21.43
2019-04-29T15:33:16.533Z,21.43
2019-04-29T15:35:48.811Z,21.39
2019-04-29T15:38:19.475Z,21.32
2019-04-29T15:40:50.121Z,21.28
2019-04-29T15:43:24.475Z,21.29
2019-04-29T15:45:53.518Z,21.11
2019-04-29T15:48:24.315Z,21.11
2019-04-29T15:50:55.523Z,20.98
2019-04-29T15:53:26.945Z,20.88
2019-04-29T15:56:06.642Z,20.82
2019-04-29T15:58:31.330Z,20.79
2019-04-29T16:01:13.046Z,20.79
2019-04-29T16:03:37.611Z,20.80
2019-04-29T16:06:21.234Z,20.79
2019-04-29T16:08:47.527Z,20.63
2019-04-29T16:11:36.286Z,20.63
2019-04-29T16:14:10.028Z,20.59
2019-04-29T16:16:42.225Z,20.58
2019-04-29T16:19:12.912Z,20.59
2019-04-29T16:21:43.953Z,20.57
2019-04-29T16:24:26.445Z,20.53
2019-04-29T16:26:53.299Z,20.54
2019-04-29T16:29:20.253Z,20.52
2019-04-29T16:31:54.920Z,20.50
2019-04-29T16:34:23.822Z,20.44
2019-04-29T16:36:54.436Z,20.39
2019-04-29T16:39:25.285Z,20.36
2019-04-29T16:42:12.737Z,20.33
2019-04-29T16:44:45.014Z,20.29
2019-04-29T16:47:17.325Z,20.27
2019-04-29T16:49:48.894Z,20.23
2019-04-29T16:52:19.564Z,20.31
2019-04-29T16:54:50.709Z,20.30
2019-04-29T16:57:21.619Z,20.23
2019-04-29T16:59:52.185Z,20.20
2019-04-29T17:02:24.111Z,20.17
2019-04-29T17:04:54.743Z,20.14
2019-04-29T17:07:25.304Z,20.08
2019-04-29T17:10:00.724Z,20.06
2019-04-29T17:12:36.221Z,20.01
2019-04-29T17:15:23.042Z,19.96
2019-04-29T17:17:39.504Z,19.91
2019-04-29T17:20:10.413Z,19.85
2019-04-29T17:22:43.365Z,19.77
2019-04-29T17:25:16.641Z,19.75
2019-04-29T17:28:11.425Z,19.68
2019-04-29T17:30:46.381Z,19.61
2019-04-29T17:33:28.025Z,19.54
2019-04-29T17:35:54.449Z,19.44
2019-04-29T17:38:25.034Z,19.32
2019-04-29T17:40:56.405Z,19.20
2019-04-29T17:43:38.277Z,19.04
2019-04-29T17:46:14.352Z,18.95
2019-04-29T17:48:53.216Z,18.87
2019-04-29T17:51:22.615Z,18.82
2019-04-29T17:53:54.971Z,18.72
2019-04-29T17:56:45.132Z,18.65
2019-04-29T17:59:29.436Z,18.56
2019-04-29T18:02:20.755Z,18.48
2019-04-29T18:04:59.480Z,18.45
2019-04-29T18:07:40.451Z,18.35
2019-04-29T18:10:24.494Z,18.29
2019-04-29T18:12:51.253Z,18.22
2019-04-29T18:15:27.021Z,18.18
2019-04-29T18:18:00.306Z,18.11
2019-04-29T18:20:33.462Z,18.08
2019-04-29T18:23:05.880Z,18.01
2019-04-29T18:25:56.154Z,17.95
2019-04-29T18:28:27.013Z,17.92
2019-04-29T18:30:57.922Z,17.81
2019-04-29T18:33:30.352Z,17.74
2019-04-29T18:36:04.298Z,17.69
2019-04-29T18:38:35.069Z,17.59
2019-04-29T18:41:05.707Z,17.51
2019-04-29T18:43:36.274Z,17.47
2019-04-29T18:46:12.658Z,17.41
2019-04-29T18:48:39.275Z,17.41
2019-04-29T18:51:09.872Z,17.29
2019-04-29T18:53:40.547Z,17.26
2019-04-29T18:56:12.181Z,17.29
2019-04-29T18:58:46.882Z,17.22
2019-04-29T19:01:16.681Z,17.19
2019-04-29T19:03:52.742Z,17.12
2019-04-29T19:06:23.379Z,17.09
2019-04-29T19:08:56.589Z,17.03
2019-04-29T19:11:32.465Z,16.96
2019-04-29T19:13:59.716Z,16.88
2019-04-29T19:16:30.440Z,16.80
2019-04-29T19:19:01.830Z,16.79
2019-04-29T19:21:33.486Z,16.78
2019-04-29T19:24:04.860Z,16.72
2019-04-29T19:26:36.393Z,16.72
2019-04-29T19:29:09.402Z,16.63
2019-04-29T19:31:46.810Z,16.56
2019-04-29T19:34:14.616Z,16.54
2019-04-29T19:36:45.126Z,16.49
2019-04-29T19:39:17.056Z,16.41
2019-04-29T19:41:51.555Z,16.38
2019-04-29T19:44:26.561Z,16.34
2019-04-29T19:46:58.960Z,16.30
2019-04-29T19:49:29.176Z,16.20
2019-04-29T19:52:00.130Z,16.46
2019-04-29T19:54:31.331Z,16.18
2019-04-29T19:57:07.479Z,16.12
2019-04-29T19:59:38.158Z,16.04
2019-04-29T20:02:11.407Z,15.98
2019-04-29T20:04:53.717Z,15.97
2019-04-29T20:07:27.243Z,15.91
2019-04-29T20:10:03.682Z,15.84
2019-04-29T20:12:31.930Z,15.79
2019-04-29T20:15:07.705Z,15.77
2019-04-29T20:17:59.840Z,15.78
2019-04-29T20:20:38.610Z,15.75
2019-04-29T20:23:10.120Z,15.63
2019-04-29T20:25:41.364Z,15.64
2019-04-29T20:28:17.587Z,15.56
2019-04-29T20:30:45.839Z,15.62
2019-04-29T20:33:20.032Z,15.51
2019-04-29T20:35:50.956Z,15.45
2019-04-29T20:38:21.637Z,15.37
2019-04-29T20:40:52.714Z,15.33
2019-04-29T20:43:25.963Z,15.34
2019-04-29T20:45:58.153Z,15.33
2019-04-29T20:48:31.364Z,15.26
2019-04-29T20:51:10.813Z,15.31
2019-04-29T20:53:41.276Z,15.39
2019-04-29T20:56:16.981Z,15.47
2019-04-29T20:58:46.721Z,15.31
2019-04-29T21:01:18.589Z,15.15
2019-04-29T21:03:53.600Z,15.16
2019-04-29T21:06:21.553Z,15.07
2019-04-29T21:08:52.291Z,14.91
2019-04-29T21:11:25.787Z,14.84
2019-04-29T21:14:15.784Z,14.81
2019-04-29T21:16:51.117Z,14.81
2019-04-29T21:19:21.698Z,14.83
2019-04-29T21:21:52.274Z,14.80
2019-04-29T21:24:22.831Z,14.70
2019-04-29T21:26:55.035Z,14.64
2019-04-29T21:29:25.696Z,14.61
2019-04-29T21:32:01.435Z,14.55
2019-04-29T21:34:34.602Z,14.43
2019-04-29T21:37:08.552Z,14.35
2019-04-29T21:39:38.063Z,14.33
2019-04-29T21:42:10.283Z,14.19
2019-04-29T21:44:40.864Z,14.15
2019-04-29T21:47:11.698Z,14.16
2019-04-29T21:49:45.642Z,14.15
2019-04-29T21:52:19.514Z,14.04
2019-04-29T21:54:49.179Z,14.03
2019-04-29T21:57:23.722Z,14.03
2019-04-29T21:59:53.442Z,14.01
2019-04-29T22:02:26.096Z,13.91
2019-04-29T22:04:56.323Z,13.84
2019-04-29T22:07:26.911Z,13.76
2019-04-29T22:09:57.476Z,13.69
2019-04-29T22:12:28.046Z,13.65
2019-04-29T22:14:59.495Z,13.63
2019-04-29T22:17:32.810Z,13.50
2019-04-29T22:20:07.431Z,13.55
2019-04-29T22:22:37.715Z,13.34
2019-04-29T22:25:10.140Z,13.42
2019-04-29T22:27:41.228Z,13.40
2019-04-29T22:30:16.857Z,13.41
2019-04-29T22:32:47.158Z,13.51
2019-04-29T22:35:18.024Z,13.51
2019-04-29T22:37:48.606Z,13.28
2019-04-29T22:40:19.156Z,13.22
2019-04-29T22:43:04.834Z,13.16
2019-04-29T22:45:33.855Z,13.22
2019-04-29T22:48:14.325Z,13.14
2019-04-29T22:50:38.237Z,12.93
2019-04-29T22:53:08.820Z,12.91
2019-04-29T22:55:39.684Z,12.89
2019-04-29T23:00:40.442Z,12.88
2019-04-29T23:03:11.366Z,12.95
2019-04-29T23:05:41.935Z,12.76
2019-04-29T23:08:12.609Z,12.75
2019-04-29T23:10:45.635Z,12.60
2019-04-29T23:13:16.510Z,12.57
2019-04-29T23:15:47.221Z,12.62
2019-04-29T23:18:24.619Z,12.60
2019-04-29T23:21:05.101Z,12.58
2019-04-29T23:23:45.276Z,12.60
2019-04-29T23:26:16.943Z,12.64
2019-04-29T23:28:47.812Z,12.71
2019-04-29T23:31:18.491Z,12.75
2019-04-29T23:33:53.178Z,12.82
2019-04-29T23:36:21.357Z,12.86
2019-04-29T23:38:51.932Z,12.85
2019-04-29T23:41:27.683Z,12.99
2019-04-29T23:43:59.877Z,12.77
2019-04-29T23:46:29.742Z,12.90
2019-04-29T23:49:03.154Z,12.97
2019-04-29T23:51:34.447Z,12.96
2019-04-29T23:54:07.812Z,12.77
2019-04-29T23:56:48.120Z,12.85
2019-04-29T23:59:18.838Z,12.89
